createdAt,value
2023-05-21T00:02:49.487Z,9.60
2023-05-21T00:07:55.101Z,9.70
2023-05-21T00:12:58.130Z,9.00
2023-05-21T00:18:00.962Z,8.50
2023-05-21T00:23:04.296Z,9.00
2023-05-21T00:28:07.145Z,11.60
2023-05-21T00:33:10.613Z,11.10
2023-05-21T00:38:14.440Z,10.60
2023-05-21T00:43:17.357Z,10.00
2023-05-21T00:48:21.278Z,10.70
2023-05-21T00:53:24.186Z,9.80
2023-05-21T00:58:28.452Z,10.00
2023-05-21T01:03:31.359Z,10.00
2023-05-21T01:08:37.938Z,9.70
2023-05-21T01:13:42.165Z,9.80
2023-05-21T01:18:45.416Z,9.70
2023-05-21T01:23:48.368Z,9.00
2023-05-21T01:28:51.788Z,8.30
2023-05-21T01:33:59.203Z,8.60
2023-05-21T01:39:09.599Z,8.60
2023-05-21T01:44:15.190Z,8.20
2023-05-21T01:49:19.070Z,8.80
2023-05-21T01:54:22.201Z,8.60
2023-05-21T01:59:24.966Z,9.90
2023-05-21T02:04:28.023Z,10.00
2023-05-21T02:09:30.876Z,9.00
2023-05-21T02:14:34.054Z,9.50
2023-05-21T02:19:36.955Z,8.70
2023-05-21T02:24:40.105Z,9.30
2023-05-21T02:29:43.185Z,8.00
2023-05-21T02:34:47.434Z,8.60
2023-05-21T02:39:50.556Z,8.40
2023-05-21T02:44:53.757Z,8.40
2023-05-21T02:50:00.275Z,8.40
2023-05-21T02:55:03.286Z,7.80
2023-05-21T03:00:09.835Z,6.90
2023-05-21T03:05:12.621Z,7.10
2023-05-21T03:10:15.765Z,7.30
2023-05-21T03:15:25.013Z,7.50
2023-05-21T03:20:29.066Z,7.70
2023-05-21T03:25:32.039Z,7.30
2023-05-21T03:30:34.908Z,7.40
2023-05-21T03:35:37.854Z,6.70
2023-05-21T03:40:40.878Z,6.90
2023-05-21T03:45:44.625Z,6.80
2023-05-21T03:50:47.757Z,6.70
2023-05-21T03:55:55.341Z,6.30
2023-05-21T04:00:58.458Z,6.00
2023-05-21T04:06:02.787Z,5.80
2023-05-21T04:11:05.690Z,6.70
2023-05-21T04:16:09.546Z,6.30
2023-05-21T04:21:12.893Z,5.60
2023-05-21T04:26:18.199Z,5.30
2023-05-21T04:31:22.816Z,4.70
2023-05-21T04:36:25.691Z,4.40
2023-05-21T04:41:28.754Z,4.70
2023-05-21T04:46:32.150Z,4.50
2023-05-21T04:51:37.955Z,3.80
2023-05-21T04:56:41.117Z,3.80
2023-05-21T05:01:44.079Z,3.80
2023-05-21T05:06:47.417Z,3.50
2023-05-21T05:11:50.242Z,3.80
2023-05-21T05:16:54.446Z,3.50
2023-05-21T05:21:57.494Z,4.20
2023-05-21T05:27:00.379Z,4.40
2023-05-21T05:32:03.243Z,4.00
2023-05-21T05:37:06.267Z,4.10
2023-05-21T05:42:09.153Z,3.90
2023-05-21T05:47:11.963Z,3.60
2023-05-21T05:52:15.173Z,4.40
2023-05-21T05:57:19.861Z,3.30
2023-05-21T06:02:22.866Z,3.90
2023-05-21T06:07:25.958Z,3.30
2023-05-21T06:12:28.802Z,3.40
2023-05-21T06:17:32.110Z,3.40
2023-05-21T06:22:35.010Z,3.60
2023-05-21T06:27:38.616Z,3.00
2023-05-21T06:32:41.892Z,3.10
2023-05-21T06:37:44.900Z,3.10
2023-05-21T06:42:47.855Z,3.00
2023-05-21T06:47:50.706Z,2.90
2023-05-21T06:52:53.552Z,2.80
2023-05-21T06:57:58.215Z,2.70
2023-05-21T07:03:01.226Z,2.30
2023-05-21T07:08:04.470Z,2.70
2023-05-21T07:13:08.551Z,2.90
2023-05-21T07:18:13.765Z,2.30
2023-05-21T07:23:16.745Z,2.50
2023-05-21T07:28:20.559Z,2.50
2023-05-21T07:33:25.525Z,2.20
2023-05-21T07:38:28.399Z,2.50
2023-05-21T07:43:31.799Z,2.40
2023-05-21T07:48:35.623Z,2.30
2023-05-21T07:53:38.834Z,2.30
2023-05-21T07:58:44.292Z,2.20
2023-05-21T08:03:47.808Z,2.40
2023-05-21T08:08:50.948Z,2.10
2023-05-21T08:13:53.892Z,2.20
2023-05-21T08:24:00.557Z,2.20
2023-05-21T08:29:03.513Z,2.10
2023-05-21T08:39:09.416Z,2.20
2023-05-21T08:44:12.952Z,2.10
2023-05-21T08:49:19.049Z,2.10
2023-05-21T08:54:22.873Z,2.00
2023-05-21T08:59:26.810Z,2.00
2023-05-21T09:04:31.610Z,2.20
2023-05-21T09:09:42.744Z,2.00
2023-05-21T09:14:47.626Z,2.20
2023-05-21T09:20:16.667Z,1.90
2023-05-21T09:25:28.439Z,2.00
2023-05-21T09:30:34.036Z,2.00
2023-05-21T09:35:46.742Z,2.30
2023-05-21T09:40:49.836Z,1.80
2023-05-21T09:45:58.943Z,2.10
2023-05-21T09:51:18.517Z,2.20
2023-05-21T09:56:24.877Z,2.10
2023-05-21T10:01:28.900Z,1.90
2023-05-21T10:06:33.940Z,1.90
2023-05-21T10:11:37.522Z,4.30
2023-05-21T10:16:41.292Z,2.00
2023-05-21T10:21:45.920Z,2.10
2023-05-21T10:26:49.474Z,1.90
2023-05-21T10:31:52.954Z,2.00
2023-05-21T10:36:58.024Z,1.70
2023-05-21T10:42:35.283Z,1.90
2023-05-21T10:47:48.012Z,2.00
2023-05-21T10:53:04.947Z,2.00
2023-05-21T10:58:23.134Z,2.20
2023-05-21T11:03:27.640Z,2.00
2023-05-21T11:08:36.549Z,2.10
2023-05-21T11:13:49.237Z,1.80
2023-05-21T11:18:55.129Z,2.20
2023-05-21T11:24:03.257Z,2.00
2023-05-21T11:29:06.419Z,2.00
2023-05-21T11:34:13.723Z,2.20
2023-05-21T11:39:22.187Z,2.10
2023-05-21T11:44:48.156Z,2.30
2023-05-21T11:49:51.144Z,2.20
2023-05-21T11:54:58.392Z,2.20
2023-05-21T12:00:09.309Z,2.50
2023-05-21T12:05:13.287Z,2.30
2023-05-21T12:10:20.880Z,2.00
2023-05-21T12:15:25.001Z,2.10
2023-05-21T12:20:28.910Z,2.30
2023-05-21T12:25:32.186Z,2.10
2023-05-21T12:30:35.326Z,1.80
2023-05-21T12:35:38.694Z,2.30
2023-05-21T12:40:43.792Z,2.20
2023-05-21T12:45:48.357Z,2.20
2023-05-21T12:50:52.361Z,2.10
2023-05-21T12:56:09.585Z,2.00
2023-05-21T13:01:12.700Z,2.60
2023-05-21T13:06:15.562Z,2.40
2023-05-21T13:11:19.235Z,2.60
2023-05-21T13:16:23.925Z,2.10
2023-05-21T13:21:27.456Z,2.40
2023-05-21T13:26:30.463Z,2.30
2023-05-21T13:31:33.313Z,2.30
2023-05-21T13:36:36.385Z,2.20
2023-05-21T13:41:39.547Z,2.00
2023-05-21T13:46:43.359Z,2.40
2023-05-21T13:51:46.245Z,2.60
2023-05-21T13:56:49.112Z,2.30
2023-05-21T14:01:52.428Z,2.00
2023-05-21T14:06:55.610Z,2.10
2023-05-21T14:11:58.967Z,2.30
2023-05-21T14:17:01.897Z,2.30
2023-05-21T14:22:04.970Z,2.40
2023-05-21T14:27:08.358Z,2.20
2023-05-21T14:32:11.307Z,2.20
2023-05-21T14:37:14.196Z,2.30
2023-05-21T14:42:17.215Z,2.30
2023-05-21T14:47:20.370Z,2.40
2023-05-21T14:52:23.377Z,2.40
2023-05-21T14:57:26.646Z,2.50
2023-05-21T15:02:29.860Z,2.10
2023-05-21T15:07:35.960Z,2.00
2023-05-21T15:12:40.075Z,2.30
2023-05-21T15:17:43.982Z,2.50
2023-05-21T15:22:48.050Z,2.00
2023-05-21T15:27:52.140Z,2.20
2023-05-21T15:32:56.573Z,2.30
2023-05-21T15:37:59.328Z,2.40
2023-05-21T15:43:02.498Z,2.20
2023-05-21T15:48:05.917Z,2.10
2023-05-21T15:53:12.078Z,2.20
2023-05-21T15:58:16.711Z,1.70
2023-05-21T16:03:19.776Z,2.20
2023-05-21T16:08:23.509Z,2.00
2023-05-21T16:13:26.667Z,2.10
2023-05-21T16:18:29.908Z,2.30
2023-05-21T16:23:34.845Z,2.20
2023-05-21T16:28:38.790Z,2.30
2023-05-21T16:33:43.804Z,2.50
2023-05-21T16:38:48.032Z,2.00
2023-05-21T16:48:58.254Z,2.50
2023-05-21T16:54:03.495Z,2.00
2023-05-21T16:59:06.393Z,2.50
2023-05-21T17:04:11.275Z,2.50
2023-05-21T17:09:14.227Z,2.50
2023-05-21T17:14:32.601Z,2.30
2023-05-21T17:19:37.737Z,2.20
2023-05-21T17:24:40.804Z,2.70
2023-05-21T17:29:43.739Z,2.30
2023-05-21T17:34:47.083Z,2.20
2023-05-21T17:39:49.937Z,2.10
2023-05-21T17:44:54.199Z,2.30
2023-05-21T17:49:57.278Z,2.00
2023-05-21T17:55:01.547Z,1.70
2023-05-21T18:00:08.450Z,2.30
2023-05-21T18:05:11.648Z,2.40
2023-05-21T18:10:16.446Z,2.20
2023-05-21T18:15:19.534Z,2.20
2023-05-21T18:20:22.981Z,2.30
2023-05-21T18:25:25.975Z,2.40
2023-05-21T18:30:28.976Z,2.30
2023-05-21T18:35:31.956Z,2.40
2023-05-21T18:40:35.293Z,2.30
2023-05-21T18:45:41.549Z,2.70
2023-05-21T18:50:44.984Z,2.50
2023-05-21T18:55:49.521Z,2.30
2023-05-21T19:00:52.591Z,2.40
2023-05-21T19:05:55.702Z,2.70
2023-05-21T19:10:59.458Z,3.10
2023-05-21T19:16:04.627Z,3.00
2023-05-21T19:21:07.686Z,3.10
2023-05-21T19:26:10.861Z,2.50
2023-05-21T19:31:13.795Z,3.10
2023-05-21T19:36:17.421Z,3.00
2023-05-21T19:41:22.142Z,3.00
2023-05-21T19:46:25.212Z,2.70
2023-05-21T19:51:28.440Z,3.10
2023-05-21T19:56:31.321Z,3.00
2023-05-21T20:01:39.729Z,3.20
2023-05-21T20:06:42.726Z,3.60
2023-05-21T20:11:45.563Z,3.90
2023-05-21T20:16:49.297Z,3.80
2023-05-21T20:21:52.770Z,3.40
2023-05-21T20:26:55.718Z,3.80
2023-05-21T20:31:58.899Z,3.80
2023-05-21T20:37:02.519Z,3.60
2023-05-21T20:42:10.836Z,3.50
2023-05-21T20:47:13.872Z,3.50
2023-05-21T20:52:16.833Z,4.20
2023-05-21T20:57:19.848Z,4.10
2023-05-21T21:02:23.504Z,3.30
2023-05-21T21:07:26.424Z,3.50
2023-05-21T21:12:29.923Z,3.50
2023-05-21T21:17:32.847Z,3.70
2023-05-21T21:22:36.145Z,3.60
2023-05-21T21:27:38.994Z,3.70
2023-05-21T21:32:41.935Z,3.60
2023-05-21T21:37:44.789Z,3.30
2023-05-21T21:42:47.672Z,3.60
2023-05-21T21:47:50.912Z,3.70
2023-05-21T21:52:56.066Z,4.20
2023-05-21T21:57:58.973Z,4.00
2023-05-21T22:03:01.836Z,4.50
2023-05-21T22:08:04.943Z,4.00
2023-05-21T22:13:08.181Z,4.50
2023-05-21T22:18:12.208Z,4.20
2023-05-21T22:23:15.057Z,3.90
2023-05-21T22:28:17.950Z,3.60
2023-05-21T22:33:21.442Z,4.10
2023-05-21T22:38:25.065Z,3.50
2023-05-21T22:43:28.081Z,3.60
2023-05-21T22:48:31.077Z,3.30
2023-05-21T22:53:33.888Z,3.80
2023-05-21T22:58:36.887Z,3.40
2023-05-21T23:10:52.985Z,3.70
2023-05-21T23:15:59.012Z,3.70
2023-05-21T23:21:02.518Z,3.60
2023-05-21T23:26:05.711Z,3.80
2023-05-21T23:31:08.605Z,3.60
2023-05-21T23:36:11.608Z,4.10
2023-05-21T23:41:14.839Z,4.20
2023-05-21T23:46:17.731Z,4.20
2023-05-21T23:51:21.518Z,4.40
2023-05-21T23:56:24.513Z,4.40
